Time;durP1;ratioP1;P1;durP2;ratioP2;P2;SDS_P1;SDS_P2;PMS_P1;PMS_P2;Temp;Humidity;BMP_temperature;BMP_pressure;BME280_temperature;BME280_humidity;BME280_pressure;Samples;Min_cycle;Max_cycle;Signal;HPM_P1;HPM_P2
2023/09/15 00:00:24;;;;;;;187.85;39.35;;;;;;;;;;4974763;28;20198;-58
2023/09/15 00:02:51;;;;;;;141.80;26.33;;;;;;;;;;4971549;28;20031;-56
2023/09/15 00:05:17;;;;;;;186.57;26.58;;;;;;;;;;4975081;28;20027;-56
2023/09/15 00:07:42;;;;;;;296.27;45.50;;;;;;;;;;4974317;28;20038;-59
2023/09/15 00:10:11;;;;;;;170.25;45.15;;;;;;;;;;4975206;28;20022;-56
2023/09/15 00:12:37;;;;;;;277.48;51.25;;;;;;;;;;4980572;28;20030;-58
2023/09/15 00:15:12;;;;;;;184.93;50.70;;;;;;;;;;4985982;28;20222;-57
2023/09/15 00:17:38;;;;;;;362.90;75.82;;;;;;;;;;4980990;28;20406;-58
2023/09/15 00:20:11;;;;;;;189.18;34.90;;;;;;;;;;4982133;28;20014;-57
2023/09/15 00:22:37;;;;;;;230.25;47.75;;;;;;;;;;4980320;28;20042;-56
2023/09/15 00:25:03;;;;;;;166.57;42.30;;;;;;;;;;4986090;28;20042;-58
2023/09/15 00:27:28;;;;;;;201.40;32.00;;;;;;;;;;4982204;28;20334;-56
2023/09/15 00:29:53;;;;;;;114.90;25.70;;;;;;;;;;4980540;28;20038;-57
2023/09/15 00:32:18;;;;;;;449.03;175.50;;;;;;;;;;4982396;28;20281;-57
2023/09/15 00:34:44;;;;;;;307.88;53.85;;;;;;;;;;4979253;28;20367;-56
2023/09/15 00:37:09;;;;;;;176.10;44.13;;;;;;;;;;4984379;28;20046;-57
2023/09/15 00:39:34;;;;;;;250.30;53.47;;;;;;;;;;4983354;28;20301;-57
2023/09/15 00:41:59;;;;;;;227.50;57.10;;;;;;;;;;4984286;28;20394;-58
2023/09/15 00:44:25;;;;;;;229.73;58.53;;;;;;;;;;4981658;28;20340;-57
2023/09/15 00:46:50;;;;;;;214.10;59.50;;;;;;;;;;4978795;28;20630;-58
2023/09/15 00:49:15;;;;;;;262.53;62.77;;;;;;;;;;4978326;28;20015;-57
2023/09/15 00:51:40;;;;;;;311.70;65.10;;;;;;;;;;4974150;28;20266;-56
2023/09/15 00:54:08;;;;;;;236.57;63.35;;;;;;;;;;4973866;28;20022;-55
2023/09/15 00:56:34;;;;;;;235.60;57.03;;;;;;;;;;4974539;28;20030;-56
2023/09/15 00:59:00;;;;;;;195.77;59.10;;;;;;;;;;4976063;28;20019;-55
2023/09/15 01:01:25;;;;;;;286.98;63.97;;;;;;;;;;4973980;28;20522;-56
2023/09/15 01:03:52;;;;;;;229.20;62.45;;;;;;;;;;4970647;28;20301;-54
2023/09/15 01:06:18;;;;;;;227.20;51.20;;;;;;;;;;4971782;28;20037;-55
2023/09/15 01:08:44;;;;;;;288.42;43.13;;;;;;;;;;4972801;28;20224;-54
2023/09/15 01:11:09;;;;;;;178.57;38.17;;;;;;;;;;4973302;28;20599;-55
2023/09/15 01:13:35;;;;;;;213.13;41.67;;;;;;;;;;4972672;28;20601;-55
2023/09/15 01:16:15;;;;;;;200.02;39.17;;;;;;;;;;4972622;28;20122;-55
2023/09/15 01:18:40;;;;;;;247.95;38.22;;;;;;;;;;4973762;28;20494;-58
2023/09/15 01:21:25;;;;;;;166.55;35.22;;;;;;;;;;4982217;28;20029;-57
2023/09/15 01:23:53;;;;;;;273.42;51.72;;;;;;;;;;4978374;28;20116;-55
2023/09/15 01:26:27;;;;;;;205.80;51.53;;;;;;;;;;4977989;28;20238;-56
2023/09/15 01:28:55;;;;;;;160.48;41.72;;;;;;;;;;4973875;28;20031;-55
2023/09/15 01:31:22;;;;;;;190.25;43.88;;;;;;;;;;4973761;28;20041;-55
2023/09/15 01:33:47;;;;;;;349.60;57.60;;;;;;;;;;4969893;28;20050;-56
2023/09/15 01:36:13;;;;;;;224.25;58.28;;;;;;;;;;4973343;28;20397;-57
2023/09/15 01:38:38;;;;;;;176.97;47.77;;;;;;;;;;4975523;28;20325;-56
2023/09/15 01:41:04;;;;;;;190.23;28.27;;;;;;;;;;4973374;28;20266;-57
2023/09/15 01:43:29;;;;;;;135.52;22.75;;;;;;;;;;4972241;28;20599;-57
2023/09/15 01:45:54;;;;;;;101.97;23.15;;;;;;;;;;4971779;28;20294;-56
2023/09/15 01:48:20;;;;;;;220.07;29.00;;;;;;;;;;4973870;28;20022;-56
2023/09/15 01:50:47;;;;;;;270.45;38.75;;;;;;;;;;4970662;28;20045;-57
2023/09/15 01:53:13;;;;;;;167.90;32.58;;;;;;;;;;4972891;28;20018;-57
2023/09/15 01:55:38;;;;;;;270.80;37.72;;;;;;;;;;4970416;28;20431;-57
2023/09/15 01:58:03;;;;;;;180.15;43.28;;;;;;;;;;4974258;28;20027;-56
2023/09/15 02:00:33;;;;;;;222.20;49.30;;;;;;;;;;4973127;28;20026;-58
2023/09/15 02:02:58;;;;;;;209.68;51.33;;;;;;;;;;4971368;28;20185;-55
2023/09/15 02:05:24;;;;;;;173.20;52.43;;;;;;;;;;4971349;28;20117;-56
2023/09/15 02:07:49;;;;;;;294.67;45.13;;;;;;;;;;4972712;28;20261;-55
2023/09/15 02:10:15;;;;;;;201.18;42.83;;;;;;;;;;4970945;28;20028;-56
2023/09/15 02:12:40;;;;;;;252.63;40.60;;;;;;;;;;4971106;28;20018;-55
2023/09/15 02:15:05;;;;;;;195.93;36.60;;;;;;;;;;4972479;28;20125;-58
2023/09/15 02:17:31;;;;;;;171.95;38.42;;;;;;;;;;4979377;28;20034;-56
2023/09/15 02:19:57;;;;;;;121.83;27.57;;;;;;;;;;4981486;28;20010;-56
2023/09/15 02:22:22;;;;;;;206.77;34.67;;;;;;;;;;4980776;28;20583;-56
2023/09/15 02:24:47;;;;;;;262.58;45.40;;;;;;;;;;4977229;28;20069;-56
2023/09/15 02:27:13;;;;;;;176.90;47.85;;;;;;;;;;4978852;28;20034;-56
2023/09/15 02:29:38;;;;;;;286.43;52.20;;;;;;;;;;4977468;28;20021;-57
2023/09/15 02:32:04;;;;;;;189.45;57.17;;;;;;;;;;4978935;28;20547;-57
2023/09/15 02:34:30;;;;;;;205.90;48.83;;;;;;;;;;4976570;28;20022;-58
2023/09/15 02:36:55;;;;;;;283.92;58.83;;;;;;;;;;4970856;28;20037;-57
2023/09/15 02:39:20;;;;;;;164.40;37.30;;;;;;;;;;4973271;28;20022;-58
2023/09/15 02:41:46;;;;;;;316.80;52.22;;;;;;;;;;4969961;28;20273;-58
2023/09/15 02:44:11;;;;;;;233.50;40.50;;;;;;;;;;4971184;28;20506;-55
2023/09/15 02:46:37;;;;;;;186.30;45.50;;;;;;;;;;4971674;28;20314;-56
2023/09/15 02:49:03;;;;;;;140.15;39.65;;;;;;;;;;4970545;28;20274;-57
2023/09/15 02:51:28;;;;;;;251.57;40.35;;;;;;;;;;4969425;28;20636;-55
2023/09/15 02:53:53;;;;;;;279.60;45.50;;;;;;;;;;4969298;28;20031;-54
2023/09/15 02:56:22;;;;;;;214.60;47.38;;;;;;;;;;4973427;28;20278;-55
2023/09/15 02:58:47;;;;;;;310.38;48.42;;;;;;;;;;4970502;28;20436;-55
2023/09/15 03:01:13;;;;;;;147.05;30.10;;;;;;;;;;4973501;28;20027;-56
2023/09/15 03:03:39;;;;;;;161.27;36.85;;;;;;;;;;4969775;28;20019;-55
2023/09/15 03:06:05;;;;;;;201.35;40.63;;;;;;;;;;4971001;28;20027;-56
2023/09/15 03:08:30;;;;;;;149.88;31.98;;;;;;;;;;4971400;28;20022;-56
2023/09/15 03:10:55;;;;;;;277.10;42.92;;;;;;;;;;4969068;28;20130;-56
2023/09/15 03:13:20;;;;;;;194.52;35.90;;;;;;;;;;4971775;28;20163;-57
2023/09/15 03:15:46;;;;;;;296.23;49.45;;;;;;;;;;4969699;28;20046;-56
2023/09/15 03:18:11;;;;;;;172.03;34.70;;;;;;;;;;4971596;28;20018;-56
2023/09/15 03:20:36;;;;;;;207.93;39.25;;;;;;;;;;4970766;28;20274;-56
2023/09/15 03:23:02;;;;;;;176.35;42.15;;;;;;;;;;4969803;28;20073;-58
2023/09/15 03:25:27;;;;;;;161.43;36.35;;;;;;;;;;4969976;28;20049;-55
2023/09/15 03:27:53;;;;;;;298.98;50.70;;;;;;;;;;4969274;28;20027;-55
2023/09/15 03:30:18;;;;;;;223.93;51.05;;;;;;;;;;4969458;28;20109;-55
2023/09/15 03:32:44;;;;;;;318.17;54.67;;;;;;;;;;4968808;28;20034;-56
2023/09/15 03:35:09;;;;;;;207.77;44.73;;;;;;;;;;4970728;28;20111;-56
2023/09/15 03:37:34;;;;;;;211.07;50.95;;;;;;;;;;4970697;28;20800;-56
2023/09/15 03:40:00;;;;;;;230.82;54.95;;;;;;;;;;4969895;28;20446;-56
2023/09/15 03:42:25;;;;;;;233.77;55.47;;;;;;;;;;4969761;28;20138;-55
2023/09/15 03:44:50;;;;;;;325.40;62.00;;;;;;;;;;4970995;28;20265;-57
2023/09/15 03:47:15;;;;;;;256.70;51.10;;;;;;;;;;4970484;28;20535;-55
2023/09/15 03:49:41;;;;;;;243.73;58.10;;;;;;;;;;4969581;28;20011;-55
2023/09/15 03:52:06;;;;;;;183.73;45.30;;;;;;;;;;4972630;28;20030;-55
2023/09/15 03:54:31;;;;;;;241.77;50.05;;;;;;;;;;4970150;28;20277;-54
2023/09/15 03:56:56;;;;;;;302.07;52.60;;;;;;;;;;4968873;28;20070;-55
2023/09/15 03:59:22;;;;;;;198.43;42.33;;;;;;;;;;4971223;28;20771;-57
2023/09/15 04:01:50;;;;;;;345.05;54.08;;;;;;;;;;4966248;28;20035;-57
2023/09/15 04:04:15;;;;;;;207.05;51.60;;;;;;;;;;4969824;28;20046;-57
2023/09/15 04:06:41;;;;;;;210.50;55.00;;;;;;;;;;4970201;28;20508;-56
2023/09/15 04:09:15;;;;;;;200.57;40.00;;;;;;;;;;4970330;28;20043;-57
2023/09/15 04:11:40;;;;;;;172.15;40.15;;;;;;;;;;4969982;28;20068;-57
2023/09/15 04:14:06;;;;;;;171.68;42.80;;;;;;;;;;4969672;28;20022;-55
2023/09/15 04:16:32;;;;;;;205.15;41.50;;;;;;;;;;4970100;28;20054;-59
2023/09/15 04:18:57;;;;;;;314.38;53.28;;;;;;;;;;4970631;28;20077;-55
2023/09/15 04:21:22;;;;;;;255.73;46.85;;;;;;;;;;4969296;28;20550;-56
2023/09/15 04:23:48;;;;;;;314.38;45.97;;;;;;;;;;4968334;28;20161;-56
2023/09/15 04:26:13;;;;;;;199.32;46.78;;;;;;;;;;4969653;28;20122;-54
2023/09/15 04:28:38;;;;;;;199.55;51.42;;;;;;;;;;4971808;28;20018;-56
2023/09/15 04:31:03;;;;;;;225.70;56.38;;;;;;;;;;4965471;28;20054;-57
2023/09/15 04:33:29;;;;;;;201.97;49.33;;;;;;;;;;4971763;28;20438;-57
2023/09/15 04:35:54;;;;;;;254.30;45.45;;;;;;;;;;4975409;28;20355;-56
2023/09/15 04:38:19;;;;;;;196.90;50.17;;;;;;;;;;4970361;28;20026;-56
2023/09/15 04:40:45;;;;;;;212.05;49.67;;;;;;;;;;4969762;28;20084;-57
2023/09/15 04:43:12;;;;;;;276.73;54.93;;;;;;;;;;4973202;28;20026;-56
2023/09/15 04:45:38;;;;;;;189.18;48.70;;;;;;;;;;4973393;28;20270;-55
2023/09/15 04:48:03;;;;;;;200.07;54.05;;;;;;;;;;4973107;28;20029;-56
2023/09/15 04:50:29;;;;;;;250.65;40.22;;;;;;;;;;4973320;28;20439;-56
2023/09/15 04:52:55;;;;;;;323.92;52.33;;;;;;;;;;4971483;28;20034;-56
2023/09/15 04:55:20;;;;;;;220.20;51.83;;;;;;;;;;4972911;28;20534;-59
2023/09/15 04:57:46;;;;;;;278.50;55.55;;;;;;;;;;4972050;28;20037;-58
2023/09/15 05:00:23;;;;;;;195.10;49.83;;;;;;;;;;4974232;28;20133;-57
2023/09/15 05:02:48;;;;;;;284.42;55.42;;;;;;;;;;4970554;28;20110;-57
2023/09/15 05:05:13;;;;;;;228.43;54.70;;;;;;;;;;4973376;28;20097;-56
2023/09/15 05:07:38;;;;;;;211.00;54.47;;;;;;;;;;4973816;28;20030;-56
2023/09/15 05:10:04;;;;;;;263.85;56.97;;;;;;;;;;4971452;28;20030;-56
2023/09/15 05:12:29;;;;;;;275.05;58.55;;;;;;;;;;4972226;28;20130;-56
2023/09/15 05:14:54;;;;;;;244.80;53.03;;;;;;;;;;4971081;28;20117;-56
2023/09/15 05:17:20;;;;;;;237.32;55.85;;;;;;;;;;4971559;28;20711;-59
2023/09/15 05:19:47;;;;;;;204.43;56.40;;;;;;;;;;4973680;28;20027;-57
2023/09/15 05:22:12;;;;;;;213.70;58.70;;;;;;;;;;4973953;28;20714;-55
2023/09/15 05:24:37;;;;;;;248.60;60.73;;;;;;;;;;4971399;28;20046;-58
2023/09/15 05:27:03;;;;;;;358.25;67.22;;;;;;;;;;4971636;28;20607;-55
2023/09/15 05:29:28;;;;;;;226.27;61.65;;;;;;;;;;4972346;28;20037;-59
2023/09/15 05:31:54;;;;;;;353.73;56.30;;;;;;;;;;4970017;28;20043;-56
2023/09/15 05:34:19;;;;;;;154.88;45.60;;;;;;;;;;4974932;28;20170;-56
2023/09/15 05:36:44;;;;;;;172.33;46.90;;;;;;;;;;4973862;28;20402;-57
2023/09/15 05:39:09;;;;;;;273.90;55.50;;;;;;;;;;4973452;28;20595;-57
2023/09/15 05:41:34;;;;;;;233.95;50.28;;;;;;;;;;4972976;28;20266;-58
2023/09/15 05:44:00;;;;;;;263.10;46.67;;;;;;;;;;4972798;28;20765;-57
2023/09/15 05:46:25;;;;;;;253.95;45.85;;;;;;;;;;4972144;28;20192;-59
2023/09/15 05:48:50;;;;;;;196.73;43.33;;;;;;;;;;4972641;28;20455;-60
2023/09/15 05:51:16;;;;;;;181.53;44.93;;;;;;;;;;4971965;28;20447;-60
2023/09/15 05:53:41;;;;;;;206.38;45.25;;;;;;;;;;4969479;28;20714;-59
2023/09/15 05:56:06;;;;;;;307.92;48.50;;;;;;;;;;4969578;28;20043;-58
2023/09/15 05:58:31;;;;;;;163.33;32.63;;;;;;;;;;4972597;28;20050;-60
2023/09/15 06:00:57;;;;;;;311.73;33.23;;;;;;;;;;4968793;28;20270;-59
2023/09/15 06:03:23;;;;;;;143.00;25.58;;;;;;;;;;4971598;28;20288;-58
2023/09/15 06:05:48;;;;;;;128.98;23.02;;;;;;;;;;4972846;28;20540;-59
2023/09/15 06:08:13;;;;;;;214.93;17.98;;;;;;;;;;4970207;28;20442;-59
2023/09/15 06:10:40;;;;;;;130.77;10.15;;;;;;;;;;4973833;28;20035;-57
2023/09/15 06:13:05;;;;;;;268.20;29.88;;;;;;;;;;4967635;28;20410;-58
2023/09/15 06:15:30;;;;;;;226.57;33.65;;;;;;;;;;4973942;28;20038;-56
2023/09/15 06:17:57;;;;;;;290.13;38.92;;;;;;;;;;4972922;28;20081;-58
2023/09/15 06:20:22;;;;;;;147.97;22.87;;;;;;;;;;4972113;28;20022;-58
2023/09/15 06:22:47;;;;;;;197.17;14.30;;;;;;;;;;4971529;28;20277;-58
2023/09/15 06:25:12;;;;;;;163.57;10.37;;;;;;;;;;4967121;28;20668;-57
2023/09/15 06:27:38;;;;;;;111.55;11.13;;;;;;;;;;4971270;28;20833;-57
2023/09/15 06:30:03;;;;;;;251.75;11.88;;;;;;;;;;4969986;28;20455;-58
2023/09/15 06:32:28;;;;;;;170.73;15.95;;;;;;;;;;4970566;28;20974;-59
2023/09/15 06:34:54;;;;;;;204.43;11.80;;;;;;;;;;4969036;28;20113;-58
2023/09/15 06:37:19;;;;;;;205.27;17.20;;;;;;;;;;4970476;28;20329;-57
2023/09/15 06:39:44;;;;;;;140.23;14.48;;;;;;;;;;4971963;28;20672;-57
2023/09/15 06:42:10;;;;;;;131.03;20.37;;;;;;;;;;4971129;28;20499;-59
2023/09/15 06:44:36;;;;;;;170.55;21.45;;;;;;;;;;4971314;28;20093;-57
2023/09/15 06:47:02;;;;;;;182.90;21.88;;;;;;;;;;4971466;28;20037;-58
2023/09/15 06:49:27;;;;;;;134.10;18.52;;;;;;;;;;4976567;28;20022;-59
2023/09/15 06:51:53;;;;;;;176.50;18.48;;;;;;;;;;4971514;28;20405;-58
2023/09/15 06:54:19;;;;;;;131.80;13.20;;;;;;;;;;4970650;28;20106;-58
2023/09/15 06:56:44;;;;;;;158.53;8.20;;;;;;;;;;4972444;28;20042;-58
2023/09/15 06:59:09;;;;;;;280.25;13.98;;;;;;;;;;4969754;28;20602;-58
2023/09/15 07:01:34;;;;;;;179.13;22.08;;;;;;;;;;4970621;28;20035;-58
2023/09/15 07:03:59;;;;;;;244.37;11.43;;;;;;;;;;4969654;28;20122;-59
2023/09/15 07:06:25;;;;;;;156.53;8.90;;;;;;;;;;4968990;28;20117;-58
2023/09/15 07:08:51;;;;;;;287.55;210.18;;;;;;;;;;4971279;28;20026;-58
2023/09/15 07:11:16;;;;;;;152.00;39.47;;;;;;;;;;4969500;28;20031;-60
2023/09/15 07:13:41;;;;;;;363.50;245.15;;;;;;;;;;4969683;28;20030;-58
2023/09/15 07:16:07;;;;;;;477.07;184.07;;;;;;;;;;4968441;28;20597;-58
2023/09/15 07:18:32;;;;;;;329.13;169.18;;;;;;;;;;4969221;28;20011;-58
2023/09/15 07:20:57;;;;;;;531.90;366.63;;;;;;;;;;4969606;28;20053;-57
2023/09/15 07:23:22;;;;;;;140.03;6.67;;;;;;;;;;4970528;28;20375;-59
2023/09/15 07:25:48;;;;;;;137.47;63.27;;;;;;;;;;4970833;28;20338;-58
2023/09/15 07:28:14;;;;;;;401.02;273.92;;;;;;;;;;4969004;28;20109;-58
2023/09/15 07:30:39;;;;;;;376.90;314.80;;;;;;;;;;4970468;28;20402;-58
2023/09/15 07:33:04;;;;;;;542.87;327.93;;;;;;;;;;4969139;28;20038;-58
2023/09/15 07:35:29;;;;;;;268.60;147.48;;;;;;;;;;4969260;28;20287;-59
2023/09/15 07:37:55;;;;;;;351.67;267.20;;;;;;;;;;4968802;28;20386;-54
2023/09/15 07:40:22;;;;;;;412.67;279.95;;;;;;;;;;4969258;28;20030;-59
2023/09/15 07:42:47;;;;;;;313.92;190.98;;;;;;;;;;4970669;28;20089;-59
2023/09/15 07:45:13;;;;;;;464.23;288.98;;;;;;;;;;4967624;28;20106;-58
2023/09/15 07:47:38;;;;;;;274.13;113.85;;;;;;;;;;4971175;28;20056;-60
2023/09/15 07:50:04;;;;;;;561.50;326.50;;;;;;;;;;4970661;28;20030;-60
2023/09/15 07:52:30;;;;;;;314.25;178.10;;;;;;;;;;4969018;28;20637;-61
2023/09/15 07:54:55;;;;;;;392.25;233.98;;;;;;;;;;4968829;28;20497;-57
2023/09/15 07:57:20;;;;;;;514.93;333.40;;;;;;;;;;4969688;28;20093;-56
2023/09/15 07:59:45;;;;;;;383.60;121.77;;;;;;;;;;4968294;28;20285;-56
2023/09/15 08:02:11;;;;;;;542.37;260.77;;;;;;;;;;4969146;28;20357;-57
2023/09/15 08:04:36;;;;;;;322.07;225.63;;;;;;;;;;4969177;28;20293;-58
2023/09/15 08:07:03;;;;;;;378.50;159.40;;;;;;;;;;4969416;28;20274;-57
2023/09/15 08:09:28;;;;;;;420.48;208.90;;;;;;;;;;4970629;28;20323;-58
2023/09/15 08:11:54;;;;;;;484.92;311.10;;;;;;;;;;4970060;28;20516;-56
2023/09/15 08:14:19;;;;;;;330.33;204.90;;;;;;;;;;4965867;28;20042;-57
2023/09/15 08:16:44;;;;;;;356.27;241.80;;;;;;;;;;4972268;28;20030;-56
2023/09/15 08:19:10;;;;;;;521.00;304.97;;;;;;;;;;4971381;28;20576;-58
2023/09/15 08:21:35;;;;;;;393.05;268.77;;;;;;;;;;4973693;28;20276;-58
2023/09/15 08:24:00;;;;;;;481.40;268.07;;;;;;;;;;4971229;28;20030;-58
2023/09/15 08:26:26;;;;;;;391.77;316.30;;;;;;;;;;4975042;28;20038;-57
2023/09/15 08:28:51;;;;;;;341.00;291.93;;;;;;;;;;4974396;28;20309;-57
2023/09/15 08:31:16;;;;;;;429.88;298.42;;;;;;;;;;4971551;28;20270;-58
2023/09/15 08:33:42;;;;;;;314.50;216.15;;;;;;;;;;4973853;28;20010;-59
2023/09/15 08:36:07;;;;;;;531.77;348.30;;;;;;;;;;4973236;28;20453;-58
2023/09/15 08:38:32;;;;;;;418.33;298.37;;;;;;;;;;4974388;28;20284;-57
2023/09/15 08:41:24;;;;;;;388.40;317.63;;;;;;;;;;4973488;28;20289;-59
2023/09/15 08:43:49;;;;;;;;;;;;;;;;;;4975736;28;20271;-58
2023/09/15 08:46:14;;;;;;;348.77;229.80;;;;;;;;;;4973150;28;20112;-57
2023/09/15 08:48:41;;;;;;;406.38;308.65;;;;;;;;;;4971751;28;20274;-57
2023/09/15 08:51:06;;;;;;;465.83;246.77;;;;;;;;;;4973259;28;20029;-58
2023/09/15 08:53:32;;;;;;;460.98;366.35;;;;;;;;;;4971603;28;20023;-57
2023/09/15 08:55:57;;;;;;;374.23;260.25;;;;;;;;;;4973492;28;20050;-57
2023/09/15 08:58:24;;;;;;;274.40;216.07;;;;;;;;;;4971408;28;20026;-58
2023/09/15 09:00:50;;;;;;;349.70;256.60;;;;;;;;;;4974980;28;20594;-57
2023/09/15 09:03:15;;;;;;;445.40;221.88;;;;;;;;;;4971524;28;20046;-57
2023/09/15 09:05:46;;;;;;;319.37;230.67;;;;;;;;;;4972377;28;20442;-59
2023/09/15 09:08:12;;;;;;;486.77;310.42;;;;;;;;;;4971854;28;20503;-58
2023/09/15 09:10:38;;;;;;;457.08;362.77;;;;;;;;;;4972475;28;20489;-58
2023/09/15 09:13:03;;;;;;;393.75;240.93;;;;;;;;;;4971367;28;20486;-58
2023/09/15 09:15:31;;;;;;;408.37;341.13;;;;;;;;;;4972981;28;20489;-58
2023/09/15 09:17:56;;;;;;;355.00;305.52;;;;;;;;;;4980618;28;20763;-58
2023/09/15 09:20:23;;;;;;;370.40;301.05;;;;;;;;;;4980019;28;20117;-58
2023/09/15 09:22:48;;;;;;;452.40;363.70;;;;;;;;;;4973475;28;20023;-58
2023/09/15 09:25:13;;;;;;;454.13;278.80;;;;;;;;;;4973196;28;20449;-58
2023/09/15 09:27:39;;;;;;;392.20;315.70;;;;;;;;;;4973978;28;20276;-58
2023/09/15 09:30:04;;;;;;;600.43;407.70;;;;;;;;;;4979125;28;20285;-58
2023/09/15 09:32:29;;;;;;;439.20;341.00;;;;;;;;;;4971594;28;20022;-57
2023/09/15 09:34:54;;;;;;;384.73;334.60;;;;;;;;;;4972173;28;20022;-58
2023/09/15 09:37:24;;;;;;;482.30;365.57;;;;;;;;;;4971410;28;20129;-57
2023/09/15 09:39:49;;;;;;;110.85;10.07;;;;;;;;;;4973663;28;20596;-58
2023/09/15 09:42:14;;;;;;;446.00;257.50;;;;;;;;;;4972136;28;20034;-58
2023/09/15 09:44:39;;;;;;;400.00;334.05;;;;;;;;;;4972275;28;20026;-59
2023/09/15 09:47:09;;;;;;;402.07;315.57;;;;;;;;;;4970729;28;20453;-60
2023/09/15 09:49:34;;;;;;;349.15;255.80;;;;;;;;;;4973552;28;20101;-60
2023/09/15 09:52:00;;;;;;;382.77;252.73;;;;;;;;;;4972723;28;20118;-60
2023/09/15 09:54:28;;;;;;;427.80;295.50;;;;;;;;;;4970318;28;20109;-60
2023/09/15 09:56:53;;;;;;;211.18;91.28;;;;;;;;;;4979357;28;20041;-58
2023/09/15 09:59:19;;;;;;;477.00;295.98;;;;;;;;;;4978339;28;20026;-58
2023/09/15 10:01:44;;;;;;;364.38;263.52;;;;;;;;;;4974380;28;20564;-58
2023/09/15 10:04:10;;;;;;;467.23;261.90;;;;;;;;;;4970234;28;20103;-57
2023/09/15 10:06:38;;;;;;;429.43;305.07;;;;;;;;;;4973320;28;20034;-58
2023/09/15 10:09:07;;;;;;;270.58;148.18;;;;;;;;;;4981214;28;20275;-56
2023/09/15 10:11:35;;;;;;;395.58;289.83;;;;;;;;;;4975575;28;20061;-58
2023/09/15 10:14:02;;;;;;;353.35;316.00;;;;;;;;;;4972347;28;20026;-57
2023/09/15 10:16:28;;;;;;;445.58;344.05;;;;;;;;;;4971451;28;20092;-57
2023/09/15 10:18:54;;;;;;;429.77;311.00;;;;;;;;;;4971142;28;20024;-58
2023/09/15 10:21:19;;;;;;;544.33;300.65;;;;;;;;;;4971114;28;20113;-57
2023/09/15 10:23:45;;;;;;;417.40;270.55;;;;;;;;;;4970669;28;20027;-58
2023/09/15 10:26:12;;;;;;;552.55;275.45;;;;;;;;;;4971822;28;20038;-56
2023/09/15 10:28:37;;;;;;;247.48;188.23;;;;;;;;;;4978504;28;20566;-56
2023/09/15 10:31:04;;;;;;;292.80;229.18;;;;;;;;;;4975517;28;20580;-56
2023/09/15 10:33:30;;;;;;;511.35;339.42;;;;;;;;;;4971567;28;20513;-57
2023/09/15 10:36:03;;;;;;;328.30;266.08;;;;;;;;;;4972205;28;20506;-57
2023/09/15 10:38:29;;;;;;;359.63;307.17;;;;;;;;;;4969600;28;20109;-57
2023/09/15 10:40:56;;;;;;;632.53;474.40;;;;;;;;;;4969582;28;20137;-58
2023/09/15 10:43:21;;;;;;;417.23;269.35;;;;;;;;;;4970168;28;20030;-59
2023/09/15 10:45:53;;;;;;;387.85;233.27;;;;;;;;;;4969817;28;20108;-59
2023/09/15 10:48:18;;;;;;;617.67;368.65;;;;;;;;;;4969307;28;20026;-58
2023/09/15 10:50:44;;;;;;;511.17;274.75;;;;;;;;;;4971943;28;20039;-58
2023/09/15 10:53:10;;;;;;;467.93;253.33;;;;;;;;;;4975351;28;20574;-59
2023/09/15 10:55:35;;;;;;;368.27;226.38;;;;;;;;;;4977367;28;20035;-59
2023/09/15 10:58:02;;;;;;;316.65;253.35;;;;;;;;;;4987209;28;20394;-58
2023/09/15 11:00:28;;;;;;;498.50;350.65;;;;;;;;;;4969303;28;20026;-57
2023/09/15 11:02:53;;;;;;;306.48;206.90;;;;;;;;;;4977423;28;20378;-57
2023/09/15 11:05:19;;;;;;;609.93;400.07;;;;;;;;;;4976313;28;20495;-57
2023/09/15 11:07:44;;;;;;;383.13;235.27;;;;;;;;;;4972088;28;20274;-57
2023/09/15 11:10:10;;;;;;;307.42;205.77;;;;;;;;;;4970032;28;20019;-58
2023/09/15 11:12:35;;;;;;;459.67;348.27;;;;;;;;;;4975204;28;20030;-57
2023/09/15 11:15:00;;;;;;;376.07;266.07;;;;;;;;;;4978037;28;20435;-58
2023/09/15 11:17:29;;;;;;;520.05;284.23;;;;;;;;;;4970637;28;20313;-58
2023/09/15 11:19:55;;;;;;;382.75;277.35;;;;;;;;;;4970931;28;20401;-57
2023/09/15 11:22:20;;;;;;;556.17;292.33;;;;;;;;;;4968820;28;20038;-57
2023/09/15 11:24:45;;;;;;;307.53;245.97;;;;;;;;;;4973692;28;20065;-57
2023/09/15 11:27:14;;;;;;;474.98;323.45;;;;;;;;;;4969224;28;20262;-58
2023/09/15 11:29:41;;;;;;;283.95;202.15;;;;;;;;;;4971582;28;20450;-56
2023/09/15 11:32:06;;;;;;;448.75;355.45;;;;;;;;;;4970947;28;20058;-57
2023/09/15 11:34:31;;;;;;;337.03;211.90;;;;;;;;;;4967990;28;20049;-56
2023/09/15 11:36:58;;;;;;;365.77;278.97;;;;;;;;;;4971442;28;20642;-58
2023/09/15 11:39:24;;;;;;;435.20;254.20;;;;;;;;;;4970411;28;20266;-56
2023/09/15 11:41:53;;;;;;;434.53;293.03;;;;;;;;;;4969027;28;20039;-57
2023/09/15 11:44:19;;;;;;;590.92;261.48;;;;;;;;;;4969625;28;20260;-56
2023/09/15 11:46:44;;;;;;;555.03;398.05;;;;;;;;;;4970916;28;20031;-57
2023/09/15 11:49:10;;;;;;;668.97;371.13;;;;;;;;;;4971142;28;20038;-57
2023/09/15 11:51:36;;;;;;;370.15;235.57;;;;;;;;;;4970256;28;20123;-57
2023/09/15 11:54:03;;;;;;;360.52;294.30;;;;;;;;;;4968262;28;20029;-58
2023/09/15 11:56:29;;;;;;;582.55;339.58;;;;;;;;;;4967195;28;20434;-58
2023/09/15 11:58:54;;;;;;;257.55;97.55;;;;;;;;;;4969528;28;20462;-58
2023/09/15 12:01:21;;;;;;;383.03;219.97;;;;;;;;;;4970240;28;20046;-56
2023/09/15 12:03:49;;;;;;;372.65;324.40;;;;;;;;;;4970604;28;20269;-57
2023/09/15 12:06:18;;;;;;;484.17;297.85;;;;;;;;;;4968042;28;20050;-57
2023/09/15 12:08:50;;;;;;;471.77;347.35;;;;;;;;;;4969740;28;20042;-55
2023/09/15 12:11:16;;;;;;;253.60;10.55;;;;;;;;;;4969571;28;20039;-56
2023/09/15 12:13:41;;;;;;;383.80;299.70;;;;;;;;;;4971672;28;20026;-57
2023/09/15 12:16:14;;;;;;;425.30;267.27;;;;;;;;;;4967956;28;20319;-57
2023/09/15 12:18:40;;;;;;;415.50;351.02;;;;;;;;;;4971084;28;20026;-57
2023/09/15 12:21:12;;;;;;;391.42;286.23;;;;;;;;;;4968923;28;20142;-57
2023/09/15 12:23:37;;;;;;;;;;;;;;;;;;4968139;28;20672;-57
2023/09/15 12:26:03;;;;;;;400.23;308.35;;;;;;;;;;4970186;28;19920;-56
2023/09/15 12:28:29;;;;;;;550.17;324.70;;;;;;;;;;4969032;28;20027;-57
2023/09/15 12:30:57;;;;;;;405.40;265.42;;;;;;;;;;4969867;28;20035;-58
2023/09/15 12:33:24;;;;;;;550.22;314.58;;;;;;;;;;4967273;28;20029;-57
2023/09/15 12:35:49;;;;;;;611.80;396.02;;;;;;;;;;4968610;28;20046;-57
2023/09/15 12:38:17;;;;;;;352.67;231.90;;;;;;;;;;4968818;28;20014;-57
2023/09/15 12:40:42;;;;;;;355.38;260.92;;;;;;;;;;4968157;28;20365;-58
2023/09/15 12:43:08;;;;;;;491.50;350.52;;;;;;;;;;4968407;28;20142;-58
2023/09/15 12:45:33;;;;;;;357.80;287.70;;;;;;;;;;4968290;28;20046;-58
2023/09/15 12:47:58;;;;;;;371.77;199.52;;;;;;;;;;4969776;28;20536;-56
2023/09/15 12:50:23;;;;;;;530.17;257.20;;;;;;;;;;4966924;28;20090;-58
2023/09/15 12:52:49;;;;;;;339.23;242.57;;;;;;;;;;4969208;28;20110;-57
2023/09/15 12:55:14;;;;;;;413.63;345.43;;;;;;;;;;4969821;28;20050;-56
2023/09/15 12:57:40;;;;;;;387.52;271.00;;;;;;;;;;4970710;28;20054;-59
2023/09/15 13:00:06;;;;;;;620.13;473.07;;;;;;;;;;4971025;28;20445;-59
2023/09/15 13:02:31;;;;;;;735.53;438.60;;;;;;;;;;4971243;28;20281;-58
2023/09/15 13:04:56;;;;;;;308.85;206.00;;;;;;;;;;4973921;28;20057;-58
2023/09/15 13:07:22;;;;;;;592.80;359.42;;;;;;;;;;4971069;28;20034;-57
2023/09/15 13:09:47;;;;;;;450.42;318.40;;;;;;;;;;4973627;28;20058;-57
2023/09/15 13:12:13;;;;;;;566.80;437.10;;;;;;;;;;4971634;28;20074;-57
2023/09/15 13:14:38;;;;;;;162.10;77.63;;;;;;;;;;4970841;28;20121;-58
2023/09/15 13:17:04;;;;;;;496.50;387.37;;;;;;;;;;4973517;28;20034;-58
2023/09/15 13:19:30;;;;;;;381.35;159.77;;;;;;;;;;4973177;28;20298;-57
2023/09/15 13:21:55;;;;;;;390.05;337.77;;;;;;;;;;4971110;28;20062;-58
2023/09/15 13:24:21;;;;;;;501.63;239.83;;;;;;;;;;4970382;28;20116;-57
2023/09/15 13:26:46;;;;;;;462.58;375.27;;;;;;;;;;4972177;28;20647;-58
2023/09/15 13:29:11;;;;;;;350.17;195.80;;;;;;;;;;4972135;28;20470;-56
2023/09/15 13:31:36;;;;;;;593.83;358.83;;;;;;;;;;4970309;28;20609;-58
2023/09/15 13:34:02;;;;;;;424.43;291.43;;;;;;;;;;4972895;28;20360;-58
2023/09/15 13:36:27;;;;;;;383.45;156.65;;;;;;;;;;4972145;28;20182;-57
2023/09/15 13:38:52;;;;;;;390.10;241.60;;;;;;;;;;4973695;28;20105;-57
2023/09/15 13:41:18;;;;;;;353.63;244.13;;;;;;;;;;4970927;28;20062;-56
2023/09/15 13:43:43;;;;;;;152.75;23.60;;;;;;;;;;4970543;28;20386;-56
2023/09/15 13:46:08;;;;;;;365.30;169.60;;;;;;;;;;4970409;28;20043;-57
2023/09/15 13:48:34;;;;;;;512.93;257.97;;;;;;;;;;4970702;28;20088;-58
2023/09/15 13:51:00;;;;;;;375.08;237.10;;;;;;;;;;4971223;28;20558;-57